Time;durP1;ratioP1;P1;durP2;ratioP2;P2;SDS_P1;SDS_P2;PMS_P1;PMS_P2;Temp;Humidity;BMP_temperature;BMP_pressure;BME280_temperature;BME280_humidity;BME280_pressure;Samples;Min_cycle;Max_cycle;Signal;HPM_P1;HPM_P2
2023/01/08 00:01:29;;;;;;;0.88;0.77;;;;;;;;;;5085574;28;20024;-87
2023/01/08 00:03:55;;;;;;;1.00;0.88;;;;;;;;;;5108533;28;20030;-89
2023/01/08 00:06:20;;;;;;;0.77;0.70;;;;;;;;;;5083694;28;20028;-88
2023/01/08 00:08:46;;;;;;;0.47;0.47;;;;;;;;;;5083999;28;20040;-87
2023/01/08 00:11:12;;;;;;;0.90;0.50;;;;;;;;;;5100918;28;20032;-87
2023/01/08 00:13:37;;;;;;;0.47;0.47;;;;;;;;;;5105132;28;20015;-88
2023/01/08 00:16:05;;;;;;;0.50;0.50;;;;;;;;;;5100336;28;20069;-87
2023/01/08 00:18:30;;;;;;;0.30;0.30;;;;;;;;;;5091326;28;20054;-87
2023/01/08 00:20:56;;;;;;;0.57;0.57;;;;;;;;;;5085934;28;20039;-87
2023/01/08 00:23:22;;;;;;;0.68;0.38;;;;;;;;;;5082939;28;20024;-88
2023/01/08 00:25:47;;;;;;;0.55;0.52;;;;;;;;;;5095560;28;20020;-88
2023/01/08 00:28:16;;;;;;;0.55;0.55;;;;;;;;;;5107105;28;20051;-88
2023/01/08 00:30:41;;;;;;;0.82;0.50;;;;;;;;;;5085710;28;20039;-87
2023/01/08 00:33:07;;;;;;;0.20;0.20;;;;;;;;;;5099452;28;20028;-88
2023/01/08 00:35:32;;;;;;;0.47;0.47;;;;;;;;;;5104288;28;20060;-88
2023/01/08 00:37:58;;;;;;;0.68;0.68;;;;;;;;;;5105004;28;20026;-87
2023/01/08 00:40:23;;;;;;;0.57;0.57;;;;;;;;;;5095465;28;20317;-87
2023/01/08 00:42:48;;;;;;;0.63;0.63;;;;;;;;;;5103458;28;20023;-86
2023/01/08 00:45:14;;;;;;;1.48;0.52;;;;;;;;;;5081387;28;20061;-86
2023/01/08 00:47:39;;;;;;;0.22;0.22;;;;;;;;;;5079828;28;20477;-88
2023/01/08 00:50:05;;;;;;;0.30;0.30;;;;;;;;;;5103779;28;20471;-87
2023/01/08 00:52:31;;;;;;;0.30;0.30;;;;;;;;;;5101746;28;20475;-87
2023/01/08 00:54:56;;;;;;;0.20;0.20;;;;;;;;;;5088467;28;20034;-88
2023/01/08 00:57:22;;;;;;;1.67;0.90;;;;;;;;;;5080219;28;20111;-87
2023/01/08 00:59:47;;;;;;;0.30;0.30;;;;;;;;;;5082337;28;20051;-88
2023/01/08 01:02:13;;;;;;;1.13;0.75;;;;;;;;;;5097445;28;20398;-87
2023/01/08 01:04:39;;;;;;;1.08;0.70;;;;;;;;;;5087409;28;20035;-88
2023/01/08 01:07:04;;;;;;;0.73;0.73;;;;;;;;;;5101677;28;20031;-88
2023/01/08 01:09:30;;;;;;;0.43;0.43;;;;;;;;;;5082850;28;20024;-88
2023/01/08 01:11:55;;;;;;;4.50;0.68;;;;;;;;;;5098187;28;20028;-87
2023/01/08 01:14:21;;;;;;;0.57;0.57;;;;;;;;;;5090779;28;20015;-88
2023/01/08 01:16:47;;;;;;;0.57;0.40;;;;;;;;;;5085257;28;20030;-87
2023/01/08 01:19:14;;;;;;;0.45;0.45;;;;;;;;;;5106804;28;20421;-87
2023/01/08 01:21:39;;;;;;;1.17;0.57;;;;;;;;;;5083327;28;20404;-87
2023/01/08 01:24:05;;;;;;;0.77;0.77;;;;;;;;;;5103957;28;20024;-88
2023/01/08 01:26:32;;;;;;;0.30;0.30;;;;;;;;;;5081376;28;20032;-86
2023/01/08 01:28:59;;;;;;;0.60;0.60;;;;;;;;;;5086512;28;20048;-89
2023/01/08 01:31:27;;;;;;;0.40;0.40;;;;;;;;;;5099710;28;20027;-88
2023/01/08 01:33:52;;;;;;;0.50;0.47;;;;;;;;;;5084528;28;20060;-88
2023/01/08 01:36:22;;;;;;;1.98;0.93;;;;;;;;;;5101554;28;20036;-88
2023/01/08 01:38:49;;;;;;;0.40;0.40;;;;;;;;;;5088657;28;20081;-86
2023/01/08 01:41:22;;;;;;;1.08;0.60;;;;;;;;;;5084550;28;20483;-89
2023/01/08 01:43:47;;;;;;;0.38;0.38;;;;;;;;;;5081349;28;20020;-90
2023/01/08 01:46:34;;;;;;;1.80;1.45;;;;;;;;;;5078569;28;20092;-88
2023/01/08 01:49:04;;;;;;;1.17;0.68;;;;;;;;;;5115446;28;20426;-89
2023/01/08 01:51:33;;;;;;;0.47;0.47;;;;;;;;;;5083290;28;20024;-88
2023/01/08 01:54:01;;;;;;;1.23;1.05;;;;;;;;;;5104284;28;21179;-89
2023/01/08 01:56:28;;;;;;;2.75;1.33;;;;;;;;;;5087512;28;20105;-90
2023/01/08 01:58:54;;;;;;;0.70;0.55;;;;;;;;;;5080478;28;20024;-88
2023/01/08 02:01:20;;;;;;;1.67;1.42;;;;;;;;;;5088446;28;20115;-89
2023/01/08 02:03:46;;;;;;;0.40;0.40;;;;;;;;;;5085678;28;20023;-88
2023/01/08 02:06:33;;;;;;;0.40;0.40;;;;;;;;;;5090491;28;20026;-87
2023/01/08 02:09:13;;;;;;;0.90;0.90;;;;;;;;;;5084446;28;20531;-87
2023/01/08 02:12:17;;;;;;;0.85;0.68;;;;;;;;;;5103406;28;20051;-88
2023/01/08 02:15:23;;;;;;;0.17;0.17;;;;;;;;;;5099544;28;20012;-87
2023/01/08 02:18:11;;;;;;;0.40;0.40;;;;;;;;;;5057416;28;20032;-87
2023/01/08 02:20:50;;;;;;;0.65;0.45;;;;;;;;;;5103934;28;20254;-86
2023/01/08 02:23:34;;;;;;;0.40;0.38;;;;;;;;;;5087319;28;20387;-87
2023/01/08 02:26:14;;;;;;;0.20;0.20;;;;;;;;;;5090783;28;20024;-87
2023/01/08 02:29:01;;;;;;;0.38;0.38;;;;;;;;;;5094884;28;20506;-88
2023/01/08 02:31:29;;;;;;;0.30;0.30;;;;;;;;;;5087987;28;20036;-87
2023/01/08 02:33:55;;;;;;;0.45;0.45;;;;;;;;;;5100243;28;20105;-87
2023/01/08 02:36:40;;;;;;;0.43;0.43;;;;;;;;;;5083543;28;20032;-87
2023/01/08 02:39:30;;;;;;;0.50;0.50;;;;;;;;;;5082079;28;20480;-88
2023/01/08 02:42:04;;;;;;;0.75;0.50;;;;;;;;;;5087590;28;20076;-89
2023/01/08 02:44:40;;;;;;;0.43;0.43;;;;;;;;;;5087975;28;20112;-88
2023/01/08 02:47:10;;;;;;;0.40;0.40;;;;;;;;;;5106281;28;20019;-88
2023/01/08 02:49:38;;;;;;;;;;;;;;;;;;5088254;28;20020;-87
2023/01/08 02:52:05;;;;;;;0.63;0.40;;;;;;;;;;5110282;28;19922;-88
2023/01/08 02:54:34;;;;;;;0.95;0.68;;;;;;;;;;5092247;28;20039;-86
2023/01/08 02:57:12;;;;;;;0.30;0.30;;;;;;;;;;5083427;28;20081;-86
2023/01/08 02:59:39;;;;;;;0.10;0.10;;;;;;;;;;5111316;28;20466;-87
2023/01/08 03:02:05;;;;;;;0.35;0.35;;;;;;;;;;5108471;28;20030;-87
2023/01/08 03:04:36;;;;;;;0.10;0.10;;;;;;;;;;5092251;28;20024;-88
2023/01/08 03:07:02;;;;;;;0.20;0.20;;;;;;;;;;5084542;28;20073;-86
2023/01/08 03:09:28;;;;;;;0.85;0.30;;;;;;;;;;5077221;28;20027;-87
2023/01/08 03:12:22;;;;;;;0.70;0.63;;;;;;;;;;5087364;28;20024;-87
2023/01/08 03:15:08;;;;;;;0.40;0.40;;;;;;;;;;5085298;28;20069;-86
2023/01/08 03:17:43;;;;;;;0.20;0.20;;;;;;;;;;5089213;28;20471;-86
2023/01/08 03:20:15;;;;;;;0.20;0.20;;;;;;;;;;5081785;28;20031;-86
2023/01/08 03:22:45;;;;;;;0.57;0.40;;;;;;;;;;5081469;28;20068;-87
2023/01/08 03:25:13;;;;;;;;;;;;;;;;;;5084574;28;20047;-87
2023/01/08 03:27:44;;;;;;;0.43;0.43;;;;;;;;;;5087910;28;19916;-86
2023/01/08 03:30:11;;;;;;;1.58;1.42;;;;;;;;;;5087555;28;20020;-86
2023/01/08 03:32:40;;;;;;;0.50;0.50;;;;;;;;;;5083211;28;20479;-87
2023/01/08 03:35:09;;;;;;;0.82;0.82;;;;;;;;;;5090618;28;20024;-87
2023/01/08 03:37:39;;;;;;;1.43;1.07;;;;;;;;;;5105711;28;20031;-89
2023/01/08 03:40:10;;;;;;;1.88;0.75;;;;;;;;;;5089060;28;20027;-87
2023/01/08 03:42:35;;;;;;;0.50;0.50;;;;;;;;;;5086832;28;20038;-87
2023/01/08 03:45:01;;;;;;;1.05;0.82;;;;;;;;;;5106845;28;20019;-86
2023/01/08 03:47:30;;;;;;;0.45;0.45;;;;;;;;;;5087571;28;20039;-87
2023/01/08 03:50:00;;;;;;;0.20;0.20;;;;;;;;;;5105552;28;20028;-88
2023/01/08 03:52:30;;;;;;;0.75;0.75;;;;;;;;;;5108085;28;20071;-89
2023/01/08 03:54:56;;;;;;;0.40;0.40;;;;;;;;;;5088730;28;20016;-89
2023/01/08 03:57:22;;;;;;;0.40;0.40;;;;;;;;;;5087317;28;20463;-89
2023/01/08 03:59:47;;;;;;;0.30;0.30;;;;;;;;;;5090441;28;20023;-88
2023/01/08 04:02:13;;;;;;;1.15;1.05;;;;;;;;;;5085595;28;20024;-89
2023/01/08 04:04:39;;;;;;;0.55;0.50;;;;;;;;;;5089466;28;20031;-88
2023/01/08 04:07:05;;;;;;;0.45;0.45;;;;;;;;;;5104939;28;20028;-88
2023/01/08 04:09:30;;;;;;;0.65;0.63;;;;;;;;;;5090835;28;20051;-88
2023/01/08 04:11:55;;;;;;;0.50;0.50;;;;;;;;;;5121742;27;20063;-88
2023/01/08 04:14:21;;;;;;;1.27;0.65;;;;;;;;;;5090153;28;20031;-87
2023/01/08 04:16:46;;;;;;;0.30;0.30;;;;;;;;;;5098555;28;20032;-89
2023/01/08 04:19:11;;;;;;;0.52;0.40;;;;;;;;;;5088417;28;20048;-88
2023/01/08 04:21:38;;;;;;;1.17;0.52;;;;;;;;;;5084784;28;20019;-88
2023/01/08 04:24:04;;;;;;;1.10;0.80;;;;;;;;;;5088113;28;20027;-88
2023/01/08 04:26:29;;;;;;;0.10;0.10;;;;;;;;;;5083948;28;20468;-88
2023/01/08 04:28:55;;;;;;;0.30;0.30;;;;;;;;;;5085287;28;20044;-88
2023/01/08 04:31:20;;;;;;;0.65;0.65;;;;;;;;;;5085393;28;20560;-87
2023/01/08 04:33:46;;;;;;;0.43;0.43;;;;;;;;;;5086101;28;20012;-88
2023/01/08 04:36:11;;;;;;;0.20;0.20;;;;;;;;;;5120614;27;20020;-87
2023/01/08 04:38:37;;;;;;;0.10;0.10;;;;;;;;;;5080125;28;20028;-87
2023/01/08 04:41:03;;;;;;;0.22;0.22;;;;;;;;;;5083928;28;20019;-87
2023/01/08 04:43:30;;;;;;;0.52;0.52;;;;;;;;;;5106942;28;20024;-88
2023/01/08 04:45:59;;;;;;;0.30;0.30;;;;;;;;;;5098952;28;20031;-88
2023/01/08 04:48:25;;;;;;;0.20;0.20;;;;;;;;;;5081406;28;20036;-88
2023/01/08 04:50:50;;;;;;;0.55;0.55;;;;;;;;;;5102558;28;20089;-87
2023/01/08 04:53:16;;;;;;;0.30;0.30;;;;;;;;;;5102672;28;20128;-88
2023/01/08 04:55:41;;;;;;;1.65;1.25;;;;;;;;;;5086181;28;20421;-87
2023/01/08 04:58:07;;;;;;;0.73;0.65;;;;;;;;;;5084724;28;20513;-89
2023/01/08 05:00:33;;;;;;;0.65;0.65;;;;;;;;;;5088446;28;20019;-88
2023/01/08 05:02:58;;;;;;;0.52;0.52;;;;;;;;;;5085736;28;20024;-87
2023/01/08 05:05:24;;;;;;;0.10;0.10;;;;;;;;;;5082700;28;20490;-88
2023/01/08 05:07:49;;;;;;;0.22;0.22;;;;;;;;;;5107677;28;20028;-88
2023/01/08 05:10:15;;;;;;;0.55;0.35;;;;;;;;;;5088229;28;20442;-90
2023/01/08 05:12:40;;;;;;;0.50;0.50;;;;;;;;;;5085284;28;20024;-89
2023/01/08 05:15:06;;;;;;;0.45;0.30;;;;;;;;;;5081649;28;20048;-89
2023/01/08 05:17:31;;;;;;;0.52;0.32;;;;;;;;;;5102187;28;20076;-87
2023/01/08 05:19:57;;;;;;;1.10;0.57;;;;;;;;;;5083068;28;20016;-88
2023/01/08 05:22:22;;;;;;;0.70;0.68;;;;;;;;;;5082911;28;20161;-89
2023/01/08 05:24:47;;;;;;;0.60;0.60;;;;;;;;;;5081538;28;20028;-88
2023/01/08 05:27:13;;;;;;;1.58;0.55;;;;;;;;;;5108062;28;20031;-88
2023/01/08 05:29:38;;;;;;;1.10;0.60;;;;;;;;;;5114253;28;20031;-88
2023/01/08 05:32:12;;;;;;;1.65;0.65;;;;;;;;;;5107483;28;20106;-88
2023/01/08 05:34:37;;;;;;;2.90;0.75;;;;;;;;;;5081420;28;20030;-88
2023/01/08 05:37:03;;;;;;;2.05;0.80;;;;;;;;;;5083292;28;20107;-89
2023/01/08 05:39:28;;;;;;;0.45;0.45;;;;;;;;;;5085188;28;20086;-90
2023/01/08 05:41:53;;;;;;;0.32;0.32;;;;;;;;;;5083039;28;20039;-89
2023/01/08 05:44:19;;;;;;;0.43;0.40;;;;;;;;;;5083148;28;20035;-89
2023/01/08 05:46:44;;;;;;;0.50;0.50;;;;;;;;;;5081808;28;20023;-88
2023/01/08 05:49:10;;;;;;;0.60;0.60;;;;;;;;;;5101878;28;20065;-89
2023/01/08 05:51:35;;;;;;;0.20;0.20;;;;;;;;;;5108813;28;20079;-90
2023/01/08 05:54:00;;;;;;;0.50;0.50;;;;;;;;;;5115715;28;20024;-89
2023/01/08 05:56:26;;;;;;;0.55;0.55;;;;;;;;;;5074925;28;20479;-90
2023/01/08 05:58:54;;;;;;;0.35;0.35;;;;;;;;;;5087098;28;20024;-89
2023/01/08 06:01:19;;;;;;;0.20;0.20;;;;;;;;;;5087770;28;20031;-87
2023/01/08 06:03:44;;;;;;;0.95;0.77;;;;;;;;;;5117434;27;20035;-87
2023/01/08 06:06:10;;;;;;;0.30;0.30;;;;;;;;;;5084056;28;20024;-87
2023/01/08 06:08:36;;;;;;;0.50;0.30;;;;;;;;;;5087405;28;20055;-88
2023/01/08 06:11:05;;;;;;;1.65;0.55;;;;;;;;;;5085364;28;20035;-87
2023/01/08 06:13:31;;;;;;;0.40;0.40;;;;;;;;;;5089810;28;20023;-87
2023/01/08 06:15:59;;;;;;;0.30;0.30;;;;;;;;;;5105993;28;20027;-88
2023/01/08 06:18:24;;;;;;;1.35;0.30;;;;;;;;;;5082163;28;20016;-86
2023/01/08 06:20:50;;;;;;;0.45;0.45;;;;;;;;;;5093676;28;20023;-88
2023/01/08 06:23:15;;;;;;;0.47;0.47;;;;;;;;;;5108317;28;20024;-87
2023/01/08 06:25:41;;;;;;;0.60;0.60;;;;;;;;;;5083289;28;20043;-87
2023/01/08 06:28:07;;;;;;;0.73;0.73;;;;;;;;;;5101919;28;20047;-87
2023/01/08 06:30:32;;;;;;;1.58;1.08;;;;;;;;;;5084893;28;20024;-88
2023/01/08 06:32:59;;;;;;;1.08;0.80;;;;;;;;;;5081658;28;20081;-87
2023/01/08 06:35:25;;;;;;;0.38;0.38;;;;;;;;;;5083618;28;20468;-85
2023/01/08 06:37:50;;;;;;;0.82;0.50;;;;;;;;;;5086268;28;20031;-85
2023/01/08 06:40:16;;;;;;;1.75;0.43;;;;;;;;;;5107317;28;20034;-88
2023/01/08 06:42:42;;;;;;;0.80;0.80;;;;;;;;;;5088463;28;20430;-89
2023/01/08 06:45:09;;;;;;;0.70;0.40;;;;;;;;;;5105932;28;20386;-88
2023/01/08 06:47:34;;;;;;;3.15;2.25;;;;;;;;;;5106058;28;20028;-89
2023/01/08 06:50:00;;;;;;;1.25;1.10;;;;;;;;;;5112027;28;20094;-87
2023/01/08 06:52:25;;;;;;;1.25;1.08;;;;;;;;;;5084544;28;20051;-89
2023/01/08 06:54:50;;;;;;;2.15;1.95;;;;;;;;;;5082407;28;20026;-88
2023/01/08 06:57:16;;;;;;;1.40;1.20;;;;;;;;;;5123929;27;20042;-89
2023/01/08 06:59:42;;;;;;;1.83;1.42;;;;;;;;;;5108161;28;20061;-88
2023/01/08 07:02:13;;;;;;;1.90;1.23;;;;;;;;;;5084842;28;20588;-90
2023/01/08 07:04:44;;;;;;;2.15;1.40;;;;;;;;;;5083600;28;20032;-87
2023/01/08 07:07:14;;;;;;;1.15;1.05;;;;;;;;;;5081684;28;21072;-89
2023/01/08 07:09:42;;;;;;;1.33;1.00;;;;;;;;;;5079146;28;20055;-89
2023/01/08 07:12:12;;;;;;;1.73;1.63;;;;;;;;;;5102711;28;20678;-89
2023/01/08 07:14:38;;;;;;;;;;;;;;;;;;5083296;28;20031;-87
2023/01/08 07:17:03;;;;;;;2.03;1.33;;;;;;;;;;5083094;28;19916;-87
2023/01/08 07:19:30;;;;;;;2.20;1.65;;;;;;;;;;5104219;28;20040;-87
2023/01/08 07:21:55;;;;;;;5.28;3.97;;;;;;;;;;5102022;28;20080;-88
2023/01/08 07:24:20;;;;;;;2.78;2.13;;;;;;;;;;5103244;28;20106;-89
2023/01/08 07:26:46;;;;;;;3.35;2.50;;;;;;;;;;5102499;28;20054;-93
2023/01/08 07:29:11;;;;;;;3.78;3.05;;;;;;;;;;5105545;28;20043;-88
2023/01/08 07:31:37;;;;;;;2.75;2.55;;;;;;;;;;5085273;28;20128;-88
2023/01/08 07:34:02;;;;;;;4.80;3.38;;;;;;;;;;5102240;28;20103;-88
2023/01/08 07:36:28;;;;;;;3.92;2.58;;;;;;;;;;5079825;28;20059;-87
2023/01/08 07:38:53;;;;;;;4.57;3.17;;;;;;;;;;5084370;28;20077;-88
2023/01/08 07:41:18;;;;;;;3.17;2.63;;;;;;;;;;5084884;28;20070;-86
2023/01/08 07:43:46;;;;;;;7.45;3.10;;;;;;;;;;5081270;28;20016;-86
2023/01/08 07:46:11;;;;;;;6.00;2.70;;;;;;;;;;5083115;28;20031;-87
2023/01/08 07:48:37;;;;;;;9.50;5.22;;;;;;;;;;5082248;28;20381;-87
2023/01/08 07:51:04;;;;;;;14.00;5.35;;;;;;;;;;5084855;28;20081;-87
2023/01/08 07:53:30;;;;;;;10.00;4.78;;;;;;;;;;5082677;28;20035;-88
2023/01/08 07:56:00;;;;;;;7.18;5.28;;;;;;;;;;5088748;28;20020;-88
2023/01/08 07:58:26;;;;;;;;;;;;;;;;;;5099857;28;20537;-87
2023/01/08 08:00:51;;;;;;;7.05;3.95;;;;;;;;;;5079996;28;20003;-89
2023/01/08 08:03:17;;;;;;;6.45;4.72;;;;;;;;;;5082219;28;20386;-89
2023/01/08 08:05:42;;;;;;;6.55;4.80;;;;;;;;;;5087040;28;20487;-91
2023/01/08 08:08:09;;;;;;;8.05;6.35;;;;;;;;;;5117091;27;20059;-88
2023/01/08 08:10:35;;;;;;;7.45;5.20;;;;;;;;;;5082738;28;20024;-88
2023/01/08 08:13:00;;;;;;;7.80;5.53;;;;;;;;;;5081605;28;20145;-90
2023/01/08 08:15:26;;;;;;;6.10;3.92;;;;;;;;;;5101311;28;20016;-90
2023/01/08 08:17:52;;;;;;;6.45;5.43;;;;;;;;;;5080215;28;20105;-89
2023/01/08 08:20:17;;;;;;;13.15;4.18;;;;;;;;;;5080587;28;20036;-90
2023/01/08 08:22:43;;;;;;;7.03;3.88;;;;;;;;;;5085854;28;20019;-89
2023/01/08 08:25:09;;;;;;;6.60;4.82;;;;;;;;;;5082478;28;20106;-90
2023/01/08 08:27:34;;;;;;;9.75;5.95;;;;;;;;;;5082105;28;20052;-90
2023/01/08 08:30:00;;;;;;;6.63;5.28;;;;;;;;;;5081643;28;20029;-88
2023/01/08 08:32:25;;;;;;;15.93;7.25;;;;;;;;;;5085376;28;20039;-87
2023/01/08 08:34:51;;;;;;;6.57;5.05;;;;;;;;;;5082496;28;20107;-91
2023/01/08 08:37:16;;;;;;;11.02;7.63;;;;;;;;;;5081124;28;20024;-87
2023/01/08 08:39:42;;;;;;;8.55;5.93;;;;;;;;;;5077690;28;20032;-88
2023/01/08 08:42:07;;;;;;;11.05;8.35;;;;;;;;;;5080326;28;20099;-89
2023/01/08 08:44:32;;;;;;;13.75;7.35;;;;;;;;;;5085190;28;20093;-90
2023/01/08 08:46:58;;;;;;;11.35;7.03;;;;;;;;;;5086880;28;20088;-88
2023/01/08 08:49:23;;;;;;;10.27;6.38;;;;;;;;;;5087191;28;20533;-87
2023/01/08 08:51:49;;;;;;;15.65;8.68;;;;;;;;;;5084169;28;20590;-88
2023/01/08 08:54:14;;;;;;;8.05;7.32;;;;;;;;;;5079965;28;20028;-89
2023/01/08 08:56:52;;;;;;;8.40;6.25;;;;;;;;;;5086982;28;20400;-88
2023/01/08 08:59:17;;;;;;;11.60;7.45;;;;;;;;;;5079535;28;20111;-88
2023/01/08 09:01:43;;;;;;;11.30;6.57;;;;;;;;;;5079565;28;20105;-87
2023/01/08 09:04:08;;;;;;;10.90;5.97;;;;;;;;;;5078934;28;20387;-89
2023/01/08 09:06:33;;;;;;;7.47;5.30;;;;;;;;;;5080386;28;20032;-91
2023/01/08 09:08:59;;;;;;;11.20;6.78;;;;;;;;;;5081470;28;20571;-89
2023/01/08 09:11:24;;;;;;;10.00;6.47;;;;;;;;;;5077101;28;20031;-87
2023/01/08 09:13:50;;;;;;;18.75;8.38;;;;;;;;;;5082125;28;20433;-89
2023/01/08 09:16:15;;;;;;;9.52;6.55;;;;;;;;;;5077934;28;20108;-89
2023/01/08 09:18:41;;;;;;;6.63;4.70;;;;;;;;;;5083273;28;20032;-89
2023/01/08 09:21:07;;;;;;;8.57;6.80;;;;;;;;;;5079345;28;20029;-87
2023/01/08 09:23:33;;;;;;;7.90;5.38;;;;;;;;;;5079209;28;20039;-88
2023/01/08 09:26:00;;;;;;;9.77;6.28;;;;;;;;;;5080625;28;20035;-88
2023/01/08 09:28:26;;;;;;;7.03;5.18;;;;;;;;;;5059582;28;20037;-88
2023/01/08 09:30:51;;;;;;;6.03;4.88;;;;;;;;;;5081189;28;20032;-86
2023/01/08 09:33:17;;;;;;;6.93;4.20;;;;;;;;;;5052084;28;20128;-88
2023/01/08 09:35:43;;;;;;;4.25;3.85;;;;;;;;;;5052270;28;20028;-88
2023/01/08 09:38:08;;;;;;;5.45;4.30;;;;;;;;;;5050352;28;20490;-87
2023/01/08 09:40:38;;;;;;;8.00;4.82;;;;;;;;;;5052287;28;20112;-90
2023/01/08 09:43:05;;;;;;;3.58;3.28;;;;;;;;;;5051819;28;20021;-89
2023/01/08 09:45:36;;;;;;;10.20;4.55;;;;;;;;;;5052897;28;20040;-91
2023/01/08 09:48:06;;;;;;;10.38;5.45;;;;;;;;;;5049637;28;20024;-90
2023/01/08 09:50:33;;;;;;;4.55;3.55;;;;;;;;;;5050324;28;20104;-90
2023/01/08 09:52:59;;;;;;;8.80;4.78;;;;;;;;;;5051363;28;20451;-90
2023/01/08 09:55:28;;;;;;;15.77;4.97;;;;;;;;;;5052456;28;20025;-89
2023/01/08 09:57:54;;;;;;;3.70;2.75;;;;;;;;;;5049007;28;20021;-87
2023/01/08 10:00:32;;;;;;;5.22;3.95;;;;;;;;;;5049206;28;20113;-88
2023/01/08 10:02:58;;;;;;;4.45;3.13;;;;;;;;;;5049548;28;20035;-90
2023/01/08 10:05:27;;;;;;;6.97;3.72;;;;;;;;;;5046965;28;20458;-89
2023/01/08 10:07:52;;;;;;;3.50;3.00;;;;;;;;;;5047342;28;20025;-84
2023/01/08 10:10:26;;;;;;;4.90;2.85;;;;;;;;;;5050930;28;20037;-85
2023/01/08 10:12:53;;;;;;;6.60;3.40;;;;;;;;;;5048316;28;20029;-83
2023/01/08 10:15:20;;;;;;;5.47;3.67;;;;;;;;;;5051022;28;20029;-84
2023/01/08 10:18:00;;;;;;;6.78;2.58;;;;;;;;;;5049425;28;20052;-85
2023/01/08 10:20:26;;;;;;;3.97;2.88;;;;;;;;;;5083429;28;20052;-85
2023/01/08 10:22:53;;;;;;;3.33;2.60;;;;;;;;;;5051024;28;20049;-84
2023/01/08 10:25:26;;;;;;;9.38;6.95;;;;;;;;;;5049666;28;20028;-84
2023/01/08 10:27:59;;;;;;;8.77;6.10;;;;;;;;;;5061231;28;20935;-84
2023/01/08 10:30:27;;;;;;;12.30;6.15;;;;;;;;;;5111087;28;20082;-86
2023/01/08 10:32:54;;;;;;;4.40;3.10;;;;;;;;;;5071846;28;20028;-89
2023/01/08 10:35:23;;;;;;;4.85;2.25;;;;;;;;;;5097265;28;20024;-85
2023/01/08 10:37:49;;;;;;;4.15;3.08;;;;;;;;;;5092631;28;20081;-85
2023/01/08 10:40:33;;;;;;;4.15;3.50;;;;;;;;;;5078720;28;20019;-86
2023/01/08 10:43:07;;;;;;;6.05;4.57;;;;;;;;;;5074878;28;21244;-86
2023/01/08 10:45:33;;;;;;;4.60;2.58;;;;;;;;;;5097285;28;20028;-86
2023/01/08 10:48:00;;;;;;;4.93;3.42;;;;;;;;;;5082264;28;20526;-85
2023/01/08 10:50:31;;;;;;;3.75;3.15;;;;;;;;;;5089656;28;20110;-87
2023/01/08 10:53:01;;;;;;;4.78;3.83;;;;;;;;;;5090430;28;20102;-85
2023/01/08 10:55:30;;;;;;;;;;;;;;;;;;5102039;28;20110;-86
2023/01/08 10:58:02;;;;;;;2.85;2.20;;;;;;;;;;5097986;28;19912;-87
2023/01/08 11:00:31;;;;;;;4.57;3.03;;;;;;;;;;5096735;28;20032;-86
2023/01/08 11:03:08;;;;;;;5.78;3.75;;;;;;;;;;5075648;28;20423;-86
2023/01/08 11:05:38;;;;;;;7.07;3.72;;;;;;;;;;5072570;28;20430;-87
2023/01/08 11:08:12;;;;;;;;;;;;;;;;;;5077369;28;20020;-87
2023/01/08 11:10:38;;;;;;;6.38;4.18;;;;;;;;;;5093485;28;19915;-86
2023/01/08 11:13:06;;;;;;;5.63;3.83;;;;;;;;;;5078139;28;20034;-88
2023/01/08 11:15:39;;;;;;;7.50;4.93;;;;;;;;;;5085165;28;20452;-90
2023/01/08 11:18:26;;;;;;;6.10;4.10;;;;;;;;;;5099440;28;20028;-87
2023/01/08 11:20:52;;;;;;;4.55;3.75;;;;;;;;;;5080697;28;20111;-89
2023/01/08 11:23:23;;;;;;;6.38;3.75;;;;;;;;;;5081181;28;20777;-89
2023/01/08 11:26:13;;;;;;;7.07;3.47;;;;;;;;;;5094958;28;20499;-89
2023/01/08 11:28:38;;;;;;;5.43;3.95;;;;;;;;;;5083954;28;20043;-85
2023/01/08 11:31:16;;;;;;;7.40;3.92;;;;;;;;;;5082120;28;20054;-87
2023/01/08 11:33:44;;;;;;;7.25;4.72;;;;;;;;;;5099761;28;20021;-87
2023/01/08 11:36:19;;;;;;;6.43;4.35;;;;;;;;;;5088784;28;20027;-88
2023/01/08 11:38:46;;;;;;;7.10;4.60;;;;;;;;;;5105139;28;20032;-85
2023/01/08 11:41:28;;;;;;;9.82;5.93;;;;;;;;;;5082391;28;20184;-85
2023/01/08 11:44:18;;;;;;;6.88;5.13;;;;;;;;;;5105165;28;20379;-85
2023/01/08 11:47:07;;;;;;;5.93;4.75;;;;;;;;;;5081492;28;20023;-85
2023/01/08 11:49:42;;;;;;;5.28;4.45;;;;;;;;;;5105259;28;20460;-84
2023/01/08 11:52:13;;;;;;;11.02;5.65;;;;;;;;;;5103564;28;20038;-85
2023/01/08 11:55:00;;;;;;;8.05;4.45;;;;;;;;;;5117598;27;20475;-86
2023/01/08 11:57:32;;;;;;;7.47;5.68;;;;;;;;;;5101406;28;20364;-86
2023/01/08 12:00:12;;;;;;;6.20;4.65;;;;;;;;;;5081700;28;20023;-83
2023/01/08 12:03:00;;;;;;;8.45;4.80;;;;;;;;;;5082450;28;20113;-85
2023/01/08 12:05:44;;;;;;;15.38;6.05;;;;;;;;;;5100732;28;20102;-88
2023/01/08 12:08:20;;;;;;;5.28;4.70;;;;;;;;;;5102563;28;20027;-85
2023/01/08 12:11:10;;;;;;;11.55;5.85;;;;;;;;;;5118402;27;20037;-87
2023/01/08 12:13:57;;;;;;;7.38;5.05;;;;;;;;;;5118178;27;20027;-85
2023/01/08 12:16:25;;;;;;;8.32;5.22;;;;;;;;;;5094896;28;20023;-84
2023/01/08 12:19:06;;;;;;;9.43;4.72;;;;;;;;;;5100561;28;20463;-86
2023/01/08 12:21:39;;;;;;;8.52;5.07;;;;;;;;;;5085818;28;20036;-85
2023/01/08 12:24:42;;;;;;;7.63;5.38;;;;;;;;;;5082446;28;20067;-85
2023/01/08 12:27:22;;;;;;;13.07;5.80;;;;;;;;;;5101571;28;20032;-85
2023/01/08 12:30:23;;;;;;;7.40;5.15;;;;;;;;;;5098043;28;20125;-84
2023/01/08 12:32:55;;;;;;;9.38;5.68;;;;;;;;;;5086674;28;20027;-85
2023/01/08 12:35:25;;;;;;;10.00;6.07;;;;;;;;;;5085465;28;20108;-86
2023/01/08 12:38:24;;;;;;;8.07;5.70;;;;;;;;;;5096005;28;20046;-86
2023/01/08 12:41:18;;;;;;;9.00;5.10;;;;;;;;;;5078867;28;20027;-86
2023/01/08 12:44:02;;;;;;;8.57;5.68;;;;;;;;;;5081826;28;20388;-86
2023/01/08 12:46:32;;;;;;;14.73;4.15;;;;;;;;;;5104370;28;20024;-89
2023/01/08 12:48:58;;;;;;;6.78;3.88;;;;;;;;;;5080769;28;20784;-89
2023/01/08 12:51:59;;;;;;;6.70;5.22;;;;;;;;;;5085900;28;20119;-89
2023/01/08 12:54:31;;;;;;;6.80;3.53;;;;;;;;;;5081351;28;20024;-89
2023/01/08 12:57:13;;;;;;;6.43;4.22;;;;;;;;;;5085340;28;20036;-89
2023/01/08 12:59:51;;;;;;;5.88;2.75;;;;;;;;;;5085257;28;20026;-91
2023/01/08 13:02:35;;;;;;;8.80;3.33;;;;;;;;;;5115124;27;20027;-89
2023/01/08 13:05:27;;;;;;;4.07;2.80;;;;;;;;;;5084615;28;20483;-90
2023/01/08 13:08:17;;;;;;;2.85;2.03;;;;;;;;;;5102526;28;20042;-90
2023/01/08 13:11:01;;;;;;;5.03;2.83;;;;;;;;;;5079362;28;20043;-91
2023/01/08 13:13:44;;;;;;;5.65;2.67;;;;;;;;;;5094338;28;20487;-89
2023/01/08 13:16:18;;;;;;;4.07;2.50;;;;;;;;;;5094078;28;20080;-89
2023/01/08 13:18:59;;;;;;;2.35;2.15;;;;;;;;;;5078300;28;20046;-91
2023/01/08 13:21:37;;;;;;;2.20;1.60;;;;;;;;;;5102988;28;20114;-91
2023/01/08 13:24:30;;;;;;;3.20;2.30;;;;;;;;;;5089830;28;20055;-90
2023/01/08 13:26:56;;;;;;;5.28;2.10;;;;;;;;;;5105968;28;20023;-90
2023/01/08 13:29:40;;;;;;;5.38;3.05;;;;;;;;;;5098118;28;20118;-90
2023/01/08 13:32:33;;;;;;;2.38;1.80;;;;;;;;;;5098104;28;20380;-89
2023/01/08 13:35:22;;;;;;;1.95;1.75;;;;;;;;;;5087948;28;20429;-88
2023/01/08 13:37:50;;;;;;;4.43;1.95;;;;;;;;;;5082719;28;20052;-91
2023/01/08 13:40:34;;;;;;;3.50;2.03;;;;;;;;;;5102959;28;20043;-89
2023/01/08 13:43:01;;;;;;;4.25;1.65;;;;;;;;;;5076967;28;20489;-90
2023/01/08 13:45:30;;;;;;;2.50;1.63;;;;;;;;;;5095699;28;20063;-90
2023/01/08 13:47:56;;;;;;;2.30;1.92;;;;;;;;;;5081956;28;20032;-90
2023/01/08 13:50:28;;;;;;;3.33;1.90;;;;;;;;;;5089523;28;20092;-89
2023/01/08 13:52:58;;;;;;;1.52;1.10;;;;;;;;;;5107344;28;20375;-89
2023/01/08 13:55:51;;;;;;;3.38;1.60;;;;;;;;;;5083302;28;20430;-89
2023/01/08 13:58:24;;;;;;;6.65;1.60;;;;;;;;;;5063285;28;20032;-90
2023/01/08 14:00:52;;;;;;;0.88;0.82;;;;;;;;;;5099237;28;20078;-88
2023/01/08 14:03:32;;;;;;;3.95;1.90;;;;;;;;;;5085017;28;20032;-90
2023/01/08 14:06:18;;;;;;;1.92;1.20;;;;;;;;;;5082397;28;20023;-90
2023/01/08 14:09:01;;;;;;;2.65;1.80;;;;;;;;;;5088966;28;20119;-91
2023/01/08 14:11:30;;;;;;;5.65;2.38;;;;;;;;;;5108197;28;20027;-89
2023/01/08 14:13:56;;;;;;;2.17;1.42;;;;;;;;;;5082385;28;20026;-88
2023/01/08 14:16:22;;;;;;;1.30;1.20;;;;;;;;;;5088922;28;20114;-90
2023/01/08 14:18:49;;;;;;;1.17;0.90;;;;;;;;;;5100020;28;20118;-91
2023/01/08 14:21:20;;;;;;;0.38;0.38;;;;;;;;;;5097848;28;20398;-91
2023/01/08 14:23:47;;;;;;;2.05;1.52;;;;;;;;;;5090750;28;20452;-89
2023/01/08 14:26:34;;;;;;;0.82;0.82;;;;;;;;;;5101621;28;20467;-89
2023/01/08 14:29:01;;;;;;;2.20;1.38;;;;;;;;;;5091115;28;20044;-90
2023/01/08 14:31:27;;;;;;;1.38;0.88;;;;;;;;;;5104969;28;20027;-89
2023/01/08 14:33:58;;;;;;;1.85;1.27;;;;;;;;;;5111421;28;20131;-88
2023/01/08 14:36:25;;;;;;;3.63;1.13;;;;;;;;;;5107218;28;20039;-88
2023/01/08 14:38:51;;;;;;;2.33;1.40;;;;;;;;;;5088968;28;20020;-91
2023/01/08 14:41:20;;;;;;;1.88;1.42;;;;;;;;;;5085979;28;20024;-88
2023/01/08 14:43:48;;;;;;;1.48;1.10;;;;;;;;;;5088993;28;20035;-88
2023/01/08 14:46:28;;;;;;;2.58;1.70;;;;;;;;;;5082208;28;20050;-89
2023/01/08 14:48:55;;;;;;;1.65;1.33;;;;;;;;;;5108969;28;20030;-92
2023/01/08 14:51:27;;;;;;;5.13;1.75;;;;;;;;;;5116457;28;20084;-91
2023/01/08 14:53:58;;;;;;;1.85;1.48;;;;;;;;;;5106379;28;20071;-88
2023/01/08 14:56:28;;;;;;;1.95;1.10;;;;;;;;;;5103670;28;20036;-90
2023/01/08 14:58:56;;;;;;;2.28;1.40;;;;;;;;;;5092011;28;20114;-89
2023/01/08 15:01:25;;;;;;;2.63;1.50;;;;;;;;;;5092998;28;20036;-90